Time;durP1;ratioP1;P1;durP2;ratioP2;P2;SDS_P1;SDS_P2;PMS_P1;PMS_P2;Temp;Humidity;BMP_temperature;BMP_pressure;BME280_temperature;BME280_humidity;BME280_pressure;Samples;Min_cycle;Max_cycle;Signal;HPM_P1;HPM_P2
2022/06/04 00:01:06;;;;;;;3.77;3.57;;;17.80;1.00;;;;;;6172267;28;20271;-56
2022/06/04 00:04:12;;;;;;;4.37;4.27;;;17.70;1.00;;;;;;6187229;28;20244;-55
2022/06/04 00:07:17;;;;;;;4.43;4.20;;;17.80;1.00;;;;;;6187613;28;20241;-55
2022/06/04 00:17:06;;;;;;;4.00;3.83;;;17.70;1.00;;;;;;6167268;28;20237;-55
2022/06/04 00:20:13;;;;;;;4.00;3.80;;;17.70;1.00;;;;;;6162638;28;20757;-55
2022/06/04 00:23:18;;;;;;;5.03;4.57;;;17.60;1.00;;;;;;6160455;28;20268;-54
2022/06/04 00:26:21;;;;;;;4.90;4.53;;;17.70;1.00;;;;;;6161651;28;20241;-55
2022/06/04 00:29:24;;;;;;;4.70;4.40;;;17.60;1.00;;;;;;6161381;28;20769;-55
2022/06/04 00:32:27;;;;;;;4.60;4.40;;;17.60;1.00;;;;;;6163796;28;20256;-55
2022/06/04 00:35:30;;;;;;;4.30;4.00;;;17.60;1.00;;;;;;6187855;28;20296;-56
2022/06/04 00:38:35;;;;;;;6.70;4.83;;;17.60;1.00;;;;;;6187486;28;20705;-55
2022/06/04 00:41:45;;;;;;;4.93;4.57;;;17.60;1.00;;;;;;6180644;28;20315;-54
2022/06/04 00:45:30;;;;;;;5.00;4.70;;;17.60;1.00;;;;;;6182861;28;20244;-56
2022/06/04 00:48:34;;;;;;;5.40;4.70;;;17.50;1.00;;;;;;6184679;28;20459;-55
2022/06/04 00:51:38;;;;;;;4.50;4.30;;;17.50;1.00;;;;;;6183875;28;20958;-56
2022/06/04 00:54:46;;;;;;;5.23;4.80;;;17.50;1.00;;;;;;6165494;28;20240;-55
2022/06/04 00:58:08;;;;;;;5.03;4.63;;;17.40;1.00;;;;;;6161194;28;20357;-55
2022/06/04 01:01:20;;;;;;;4.60;4.40;;;17.50;1.00;;;;;;6162103;28;20769;-55
2022/06/04 01:04:50;;;;;;;4.23;4.03;;;17.40;1.00;;;;;;6188632;28;20327;-54
2022/06/04 01:08:16;;;;;;;4.77;4.50;;;17.40;1.00;;;;;;6182916;28;20323;-56
2022/06/04 01:11:30;;;;;;;4.40;4.30;;;17.40;1.00;;;;;;6185000;28;20240;-55
2022/06/04 01:14:40;;;;;;;4.90;4.60;;;17.40;1.00;;;;;;6184839;28;20351;-55
2022/06/04 01:17:58;;;;;;;5.10;4.80;;;17.30;1.00;;;;;;6161502;28;20245;-56
2022/06/04 01:21:09;;;;;;;4.87;4.50;;;17.30;1.00;;;;;;6161539;28;20372;-56
2022/06/04 01:24:47;;;;;;;4.80;4.57;;;17.20;1.00;;;;;;6159762;28;20726;-56
2022/06/04 01:27:54;;;;;;;4.63;4.37;;;17.20;1.00;;;;;;6160460;28;20237;-56
2022/06/04 01:31:04;;;;;;;4.93;4.20;;;17.30;1.00;;;;;;6160781;28;20459;-56
2022/06/04 01:34:11;;;;;;;4.80;4.43;;;17.30;1.00;;;;;;6184087;28;20430;-56
2022/06/04 01:37:19;;;;;;;4.57;4.33;;;17.20;1.00;;;;;;6191868;28;20290;-53
2022/06/04 01:43:54;;;;;;;4.70;4.33;;;17.10;1.00;;;;;;6180198;28;20233;-54
2022/06/04 01:47:00;;;;;;;4.97;4.50;;;17.10;1.00;;;;;;6183938;28;20637;-56
2022/06/04 01:50:08;;;;;;;4.67;4.50;;;17.10;1.00;;;;;;6183459;28;20705;-54
2022/06/04 01:53:15;;;;;;;4.73;4.43;;;17.20;1.00;;;;;;6182709;28;20327;-55
2022/06/04 01:56:21;;;;;;;4.63;4.23;;;17.20;1.00;;;;;;6183971;28;20374;-54
2022/06/04 01:59:29;;;;;;;4.50;4.13;;;17.20;1.00;;;;;;6166657;28;20233;-54
2022/06/04 02:02:38;;;;;;;4.37;4.17;;;17.10;1.00;;;;;;6174418;28;20250;-56
2022/06/04 02:05:45;;;;;;;4.47;4.23;;;17.10;1.00;;;;;;6192254;28;20311;-54
2022/06/04 02:08:51;;;;;;;4.43;4.23;;;17.10;1.00;;;;;;6182643;28;20240;-54
2022/06/04 02:11:57;;;;;;;4.67;4.37;;;17.00;1.00;;;;;;6180593;28;20366;-55
2022/06/04 02:15:05;;;;;;;4.27;4.03;;;17.00;1.00;;;;;;6185816;28;20386;-56
2022/06/04 02:18:11;;;;;;;4.73;4.43;;;17.00;1.00;;;;;;6182876;28;20479;-54
2022/06/04 02:21:16;;;;;;;4.13;3.93;;;17.00;1.00;;;;;;6165583;28;20232;-55
2022/06/04 02:24:19;;;;;;;5.10;4.37;;;16.90;1.00;;;;;;6158559;28;20263;-54
2022/06/04 02:27:22;;;;;;;4.67;4.40;;;16.90;1.00;;;;;;6158340;28;20327;-55
2022/06/04 02:30:36;;;;;;;4.70;4.50;;;16.90;1.00;;;;;;6160625;28;25365;-56
2022/06/04 02:33:50;;;;;;;5.30;4.80;;;16.90;1.00;;;;;;6169625;28;20334;-55
2022/06/04 02:37:09;;;;;;;4.33;4.03;;;16.80;1.00;;;;;;6164086;28;20770;-55
2022/06/04 02:40:15;;;;;;;4.70;4.50;;;16.80;1.00;;;;;;6183889;28;20232;-56
2022/06/04 02:43:22;;;;;;;4.63;4.27;;;16.90;1.00;;;;;;6180283;28;20776;-55
2022/06/04 02:46:34;;;;;;;4.73;4.40;;;16.90;1.00;;;;;;6184271;28;20748;-56
2022/06/04 02:49:42;;;;;;;4.40;4.17;;;16.80;1.00;;;;;;6179080;28;20240;-55
2022/06/04 02:52:48;;;;;;;4.87;4.57;;;16.80;1.00;;;;;;6163039;28;20368;-55
2022/06/04 02:55:57;;;;;;;5.27;4.87;;;16.80;1.00;;;;;;6165662;28;20241;-56
2022/06/04 02:59:05;;;;;;;4.97;4.60;;;16.80;1.00;;;;;;6163974;28;20331;-55
2022/06/04 03:02:13;;;;;;;5.17;4.70;;;16.80;1.00;;;;;;6164872;28;20296;-55
2022/06/04 03:05:18;;;;;;;4.80;4.50;;;16.70;1.00;;;;;;6185876;28;20388;-56
2022/06/04 03:08:22;;;;;;;5.00;4.60;;;16.70;1.00;;;;;;6192191;28;20255;-56
2022/06/04 03:11:26;;;;;;;5.07;4.33;;;16.70;1.00;;;;;;6187963;28;20467;-56
2022/06/04 03:14:29;;;;;;;4.13;3.93;;;16.70;1.00;;;;;;6188450;28;20769;-54
2022/06/04 03:17:33;;;;;;;5.30;4.50;;;16.60;1.00;;;;;;6183865;28;20515;-55
2022/06/04 03:20:37;;;;;;;4.30;4.20;;;16.50;1.00;;;;;;6188045;28;20735;-54
2022/06/04 03:23:40;;;;;;;4.50;4.20;;;16.50;1.00;;;;;;6186502;28;20326;-55
2022/06/04 03:26:44;;;;;;;4.87;4.40;;;16.50;1.00;;;;;;6174992;28;20395;-56
2022/06/04 03:29:47;;;;;;;4.20;4.00;;;16.40;1.00;;;;;;6160992;28;20228;-55
2022/06/04 03:32:51;;;;;;;5.83;4.00;;;16.40;1.00;;;;;;6173359;28;20782;-58
2022/06/04 03:35:54;;;;;;;4.53;4.23;;;16.40;1.00;;;;;;6195473;28;20271;-62
2022/06/04 03:39:00;;;;;;;4.57;4.17;;;16.40;1.00;;;;;;6181395;28;20376;-58
2022/06/04 03:42:04;;;;;;;4.50;4.20;;;16.30;1.00;;;;;;6177698;28;20236;-55
2022/06/04 03:45:09;;;;;;;4.77;4.40;;;16.40;1.00;;;;;;6185925;28;20294;-56
2022/06/04 03:48:13;;;;;;;4.87;4.50;;;16.30;1.00;;;;;;6182570;28;20263;-55
2022/06/04 03:51:16;;;;;;;4.33;4.23;;;16.30;1.00;;;;;;6181274;28;20282;-55
2022/06/04 03:54:52;;;;;;;5.00;4.60;;;16.40;1.00;;;;;;6183531;28;20278;-55
2022/06/04 03:57:48;;;;;;;4.63;4.30;;;16.40;1.00;;;;;;6185350;28;20323;-55
2022/06/04 04:00:51;;;;;;;4.20;4.00;;;16.30;1.00;;;;;;6187352;28;20229;-54
2022/06/04 04:03:56;;;;;;;4.67;4.27;;;16.40;1.00;;;;;;6186177;28;20228;-56
2022/06/04 04:06:59;;;;;;;4.40;3.87;;;16.40;1.00;;;;;;6182133;28;20232;-54
2022/06/04 04:10:03;;;;;;;4.47;4.17;;;16.50;1.00;;;;;;6187454;28;20231;-54
2022/06/04 04:13:07;;;;;;;4.10;3.70;;;16.40;1.00;;;;;;6187117;28;20232;-54
2022/06/04 04:16:12;;;;;;;4.40;4.10;;;16.40;1.00;;;;;;6183818;28;20240;-55
2022/06/04 04:19:17;;;;;;;3.67;3.50;;;16.50;1.00;;;;;;6184659;28;20240;-58
2022/06/04 04:22:20;;;;;;;3.90;3.80;;;16.60;1.00;;;;;;6186423;28;20335;-54
2022/06/04 04:25:26;;;;;;;3.80;3.50;;;16.60;1.00;;;;;;6187866;28;20801;-55
2022/06/04 04:28:29;;;;;;;4.47;4.27;;;16.60;1.00;;;;;;6180968;28;20235;-55
2022/06/04 04:31:36;;;;;;;3.80;3.70;;;16.70;1.00;;;;;;6185959;28;20232;-55
2022/06/04 04:34:41;;;;;;;3.80;3.60;;;16.70;1.00;;;;;;6185473;28;20235;-57
2022/06/04 04:37:44;;;;;;;4.20;3.90;;;16.70;1.00;;;;;;6184235;28;20403;-57
2022/06/04 04:40:47;;;;;;;4.20;3.80;;;16.70;1.00;;;;;;6182971;28;20249;-55
2022/06/04 04:43:50;;;;;;;4.37;3.97;;;16.80;1.00;;;;;;6190745;28;20405;-54
2022/06/04 04:46:53;;;;;;;4.33;4.07;;;16.80;1.00;;;;;;6195010;28;20848;-55
2022/06/04 04:49:58;;;;;;;4.00;3.70;;;16.80;1.00;;;;;;6191260;28;20244;-55
2022/06/04 04:53:03;;;;;;;3.90;3.53;;;16.80;1.00;;;;;;6189287;28;20504;-56
2022/06/04 04:56:06;;;;;;;3.80;3.60;;;16.80;1.00;;;;;;6193021;28;20239;-55
2022/06/04 04:59:10;;;;;;;4.07;3.67;;;16.80;1.00;;;;;;6188485;28;20486;-53
2022/06/04 05:02:13;;;;;;;5.23;3.87;;;16.80;1.00;;;;;;6185427;28;20239;-54
2022/06/04 05:05:17;;;;;;;4.20;4.00;;;16.90;1.00;;;;;;6188043;28;20264;-56
2022/06/04 05:08:20;;;;;;;4.23;3.93;;;16.90;1.00;;;;;;6181838;28;20244;-55
2022/06/04 05:11:27;;;;;;;4.90;3.50;;;16.90;1.00;;;;;;6178488;28;20267;-55
2022/06/04 05:14:30;;;;;;;4.13;3.90;;;16.90;1.00;;;;;;6166655;28;20309;-57
2022/06/04 05:17:33;;;;;;;3.83;3.63;;;16.90;1.00;;;;;;6189902;28;20662;-55
2022/06/04 05:20:37;;;;;;;3.80;3.60;;;17.00;1.00;;;;;;6191718;28;20474;-54
2022/06/04 05:23:40;;;;;;;3.77;3.40;;;17.20;1.00;;;;;;6192312;28;20824;-55
2022/06/04 05:26:43;;;;;;;3.80;3.60;;;17.30;1.00;;;;;;6185255;28;20330;-56
2022/06/04 05:29:46;;;;;;;3.77;3.57;;;17.60;1.00;;;;;;6191476;28;20928;-55
2022/06/04 05:32:49;;;;;;;3.60;3.50;;;17.80;1.00;;;;;;6183236;28;20341;-56
2022/06/04 05:35:53;;;;;;;3.67;3.37;;;18.30;1.00;;;;;;6187977;28;20319;-54
2022/06/04 05:38:56;;;;;;;3.30;3.10;;;18.70;1.00;;;;;;6183149;28;20330;-55
2022/06/04 05:41:59;;;;;;;3.83;3.73;;;18.90;1.00;;;;;;6181041;28;20275;-55
2022/06/04 05:45:02;;;;;;;3.73;3.40;;;19.00;1.00;;;;;;6198121;28;20283;-54
2022/06/04 05:48:06;;;;;;;4.07;3.63;;;19.10;1.00;;;;;;6181269;28;20712;-57
2022/06/04 05:51:11;;;;;;;3.77;3.57;;;19.00;1.00;;;;;;6188876;28;20268;-56
2022/06/04 05:54:15;;;;;;;3.60;3.30;;;19.00;1.00;;;;;;6188546;28;20802;-55
2022/06/04 05:57:18;;;;;;;4.37;3.80;;;18.90;1.00;;;;;;6186848;28;20235;-55
2022/06/04 06:00:22;;;;;;;3.80;3.60;;;18.80;1.00;;;;;;6187087;28;20287;-55
2022/06/04 06:03:24;;;;;;;5.90;4.07;;;18.90;1.00;;;;;;6192376;28;20330;-55
2022/06/04 06:06:31;;;;;;;5.23;3.40;;;18.80;1.00;;;;;;6183310;28;20248;-56
2022/06/04 06:09:34;;;;;;;3.80;3.50;;;18.80;1.00;;;;;;6188517;28;20329;-56
2022/06/04 06:12:37;;;;;;;4.10;3.80;;;18.80;1.00;;;;;;6184484;28;20555;-57
2022/06/04 06:15:40;;;;;;;5.17;4.00;;;18.70;1.00;;;;;;6192554;28;20755;-56
2022/06/04 06:18:43;;;;;;;4.00;3.77;;;18.80;1.00;;;;;;6187432;28;20243;-53
2022/06/04 06:21:48;;;;;;;4.40;4.00;;;18.80;1.00;;;;;;6176318;28;20231;-54
2022/06/04 06:24:51;;;;;;;4.30;3.90;;;18.90;1.00;;;;;;6184926;28;20459;-55
2022/06/04 06:27:54;;;;;;;4.10;3.83;;;19.10;1.00;;;;;;6183729;28;20239;-56
2022/06/04 06:30:57;;;;;;;4.43;3.93;;;19.40;1.00;;;;;;6180640;28;20510;-58
2022/06/04 06:34:00;;;;;;;4.30;3.90;;;19.80;1.00;;;;;;6182691;28;20733;-56
2022/06/04 06:37:05;;;;;;;4.27;3.97;;;20.10;1.00;;;;;;6179417;28;20259;-56
2022/06/04 06:40:09;;;;;;;4.20;4.00;;;20.50;1.00;;;;;;6178830;28;20706;-55
2022/06/04 06:43:12;;;;;;;4.03;3.83;;;20.70;1.00;;;;;;6176754;28;20796;-57
2022/06/04 06:46:18;;;;;;;3.87;3.67;;;21.00;1.00;;;;;;6182104;28;20247;-56
2022/06/04 06:49:23;;;;;;;5.57;4.50;;;21.10;1.00;;;;;;6183305;28;20737;-56
2022/06/04 06:52:27;;;;;;;4.10;3.37;;;21.20;1.00;;;;;;6178637;28;20236;-55
2022/06/04 06:55:30;;;;;;;4.73;4.37;;;21.20;1.00;;;;;;6185910;28;20297;-55
2022/06/04 06:58:34;;;;;;;4.27;3.83;;;21.00;1.00;;;;;;6182426;28;20832;-54
2022/06/04 07:01:37;;;;;;;5.43;3.90;;;20.90;1.00;;;;;;6184296;28;20318;-54
2022/06/04 07:04:40;;;;;;;4.43;4.07;;;20.70;1.00;;;;;;6184510;28;20751;-55
2022/06/04 07:07:45;;;;;;;4.00;3.80;;;20.60;1.00;;;;;;6179504;28;20379;-54
2022/06/04 07:10:48;;;;;;;4.23;4.03;;;20.60;1.00;;;;;;6183061;28;20428;-55
2022/06/04 07:13:51;;;;;;;4.60;4.20;;;20.60;1.00;;;;;;6182041;28;20262;-56
2022/06/04 07:16:57;;;;;;;4.63;4.20;;;20.60;1.00;;;;;;6182983;28;20240;-56
2022/06/04 07:20:00;;;;;;;4.13;3.83;;;20.60;1.00;;;;;;6187070;28;20239;-55
2022/06/04 07:23:05;;;;;;;4.43;4.03;;;20.50;1.00;;;;;;6180408;28;20260;-55
2022/06/04 07:26:08;;;;;;;3.87;3.67;;;20.40;1.00;;;;;;6188096;28;20327;-56
2022/06/04 07:29:12;;;;;;;4.50;4.20;;;20.40;1.00;;;;;;6188518;28;20276;-54
2022/06/04 07:32:15;;;;;;;3.93;3.83;;;20.30;1.00;;;;;;6186911;28;20286;-56
2022/06/04 07:35:18;;;;;;;3.90;3.80;;;20.40;1.00;;;;;;6196531;28;20588;-53
2022/06/04 07:38:22;;;;;;;4.17;4.00;;;20.50;1.00;;;;;;6186225;28;20236;-55
2022/06/04 07:41:28;;;;;;;4.23;3.87;;;20.40;1.00;;;;;;6188711;28;20244;-54
2022/06/04 07:44:31;;;;;;;3.67;3.40;;;20.30;1.00;;;;;;6193614;28;20309;-55
2022/06/04 07:47:35;;;;;;;4.30;3.90;;;20.30;1.00;;;;;;6190338;28;20240;-54
2022/06/04 07:50:42;;;;;;;3.90;3.60;;;20.30;1.00;;;;;;6198478;28;20264;-55
2022/06/04 07:53:46;;;;;;;3.60;3.40;;;20.30;1.00;;;;;;6202043;28;20240;-54
2022/06/04 07:56:50;;;;;;;3.67;3.47;;;20.20;1.00;;;;;;6194988;28;20235;-56
2022/06/04 07:59:53;;;;;;;3.23;3.13;;;20.10;1.00;;;;;;6192387;28;20734;-55
2022/06/04 08:02:58;;;;;;;3.20;3.10;;;20.00;1.00;;;;;;6195201;28;20231;-54
2022/06/04 08:06:02;;;;;;;3.43;3.27;;;20.00;1.00;;;;;;6180313;28;20236;-56
2022/06/04 08:09:06;;;;;;;3.80;3.60;;;19.90;1.00;;;;;;6186114;28;20371;-55
2022/06/04 08:12:10;;;;;;;3.50;3.13;;;19.90;1.00;;;;;;6199135;28;20274;-56
2022/06/04 08:15:14;;;;;;;3.40;3.20;;;19.90;1.00;;;;;;6194305;28;20663;-55
2022/06/04 08:18:17;;;;;;;3.70;3.50;;;19.80;1.00;;;;;;6186247;28;20243;-55
2022/06/04 08:21:20;;;;;;;3.37;3.27;;;19.70;1.00;;;;;;6196498;28;20379;-55
2022/06/04 08:24:25;;;;;;;3.40;3.30;;;19.60;1.00;;;;;;6192073;28;20313;-55
2022/06/04 08:27:28;;;;;;;3.40;3.20;;;19.60;1.00;;;;;;6195745;28;20369;-55
2022/06/04 08:30:31;;;;;;;3.83;3.60;;;19.60;1.00;;;;;;6181964;28;20311;-55
2022/06/04 08:33:36;;;;;;;3.63;3.43;;;19.50;1.00;;;;;;6191393;28;20236;-56
2022/06/04 08:36:41;;;;;;;3.40;3.30;;;19.50;1.00;;;;;;6183568;28;20786;-56
2022/06/04 08:39:45;;;;;;;3.43;3.23;;;19.50;1.00;;;;;;6185655;28;20232;-55
2022/06/04 08:43:02;;;;;;;4.00;3.13;;;19.50;1.00;;;;;;6178273;28;20264;-55
2022/06/04 08:46:12;;;;;;;3.73;3.53;;;19.60;1.00;;;;;;6184192;28;20232;-55
2022/06/04 08:49:20;;;;;;;3.37;3.27;;;19.60;1.00;;;;;;6183365;28;20259;-55
2022/06/04 08:52:30;;;;;;;3.90;3.60;;;19.70;1.00;;;;;;6180125;28;20235;-55
2022/06/04 08:59:06;;;;;;;3.50;3.20;;;19.90;1.00;;;;;;6183083;28;20243;-55
2022/06/04 09:02:16;;;;;;;3.80;3.50;;;20.00;1.00;;;;;;6165344;28;20368;-58
2022/06/04 09:05:25;;;;;;;3.17;3.03;;;20.20;1.00;;;;;;6188027;28;20634;-54
2022/06/04 09:08:44;;;;;;;3.63;3.43;;;20.40;1.00;;;;;;6183223;28;20444;-55
2022/06/04 09:11:52;;;;;;;5.27;3.47;;;20.60;1.00;;;;;;6185194;28;20650;-55
2022/06/04 09:15:02;;;;;;;3.60;3.40;;;20.80;1.00;;;;;;6190086;28;20267;-55
2022/06/04 09:18:14;;;;;;;3.30;3.10;;;21.00;1.00;;;;;;6181490;28;20233;-55
2022/06/04 09:21:17;;;;;;;3.40;3.20;;;21.20;1.00;;;;;;6183264;28;20338;-57
2022/06/04 09:24:20;;;;;;;3.23;3.13;;;21.40;1.00;;;;;;6181904;28;20331;-55
2022/06/04 09:27:37;;;;;;;3.37;3.17;;;21.60;1.00;;;;;;6187526;28;20322;-55
2022/06/04 09:30:46;;;;;;;2.93;2.73;;;21.70;1.00;;;;;;6189960;28;20228;-55
2022/06/04 09:33:55;;;;;;;2.83;2.73;;;21.70;1.00;;;;;;6185485;28;20764;-55
2022/06/04 09:37:00;;;;;;;3.07;2.97;;;21.60;1.00;;;;;;6193679;28;20250;-55
2022/06/04 09:40:08;;;;;;;3.33;3.23;;;21.50;1.00;;;;;;6181646;28;20743;-56
2022/06/04 09:43:16;;;;;;;3.33;3.03;;;21.50;1.00;;;;;;6170430;28;20793;-56
2022/06/04 09:46:43;;;;;;;2.97;2.87;;;21.50;1.00;;;;;;6184586;28;20642;-55
2022/06/04 09:49:53;;;;;;;3.00;2.87;;;21.50;1.00;;;;;;6186131;28;20658;-55
2022/06/04 09:53:16;;;;;;;3.33;3.03;;;21.50;1.00;;;;;;6181934;28;21759;-54
2022/06/04 09:56:31;;;;;;;4.03;3.63;;;21.50;1.00;;;;;;6179609;28;20315;-55
2022/06/04 09:59:35;;;;;;;4.13;3.30;;;21.50;1.00;;;;;;6179430;28;20236;-55
2022/06/04 10:02:38;;;;;;;3.73;3.40;;;21.60;1.00;;;;;;6171996;28;20576;-55
2022/06/04 10:05:50;;;;;;;3.33;3.17;;;21.70;1.00;;;;;;6192295;28;20243;-56
2022/06/04 10:12:21;;;;;;;3.40;3.30;;;21.90;1.00;;;;;;6181672;28;20378;-55
2022/06/04 10:15:38;;;;;;;2.87;2.87;;;22.10;1.00;;;;;;6185630;28;20801;-55
2022/06/04 10:18:41;;;;;;;3.03;2.93;;;22.30;1.00;;;;;;6186458;28;20228;-55
2022/06/04 10:21:46;;;;;;;3.70;3.60;;;22.40;1.00;;;;;;6179499;28;20244;-54
2022/06/04 10:24:51;;;;;;;3.50;3.33;;;22.70;1.00;;;;;;6179376;28;20242;-56
2022/06/04 10:28:08;;;;;;;3.27;3.17;;;22.90;1.00;;;;;;6186349;28;20308;-54
2022/06/04 10:31:23;;;;;;;3.47;3.20;;;23.10;1.00;;;;;;6182453;28;20430;-55
2022/06/04 10:34:33;;;;;;;3.17;3.10;;;23.30;1.00;;;;;;6189285;28;20663;-55
2022/06/04 10:37:47;;;;;;;3.40;3.30;;;23.50;1.00;;;;;;6182502;28;20350;-55
2022/06/04 10:41:03;;;;;;;6.93;3.43;;;23.60;1.00;;;;;;6153116;28;20318;-55
2022/06/04 10:44:43;;;;;;;3.53;3.43;;;23.80;1.00;;;;;;6179667;28;20227;-54
2022/06/04 10:47:51;;;;;;;3.53;3.33;;;24.00;1.00;;;;;;6186780;28;20367;-55
2022/06/04 10:54:31;;;;;;;3.30;3.20;;;24.20;1.00;;;;;;6183832;28;20378;-56
2022/06/04 10:57:39;;;;;;;3.10;2.90;;;24.30;1.00;;;;;;6188161;28;20248;-56
2022/06/04 11:00:46;;;;;;;3.43;3.20;;;24.20;1.00;;;;;;6175169;28;20324;-55
2022/06/04 11:03:57;;;;;;;4.37;3.23;;;24.30;1.00;;;;;;6180089;28;20326;-55
2022/06/04 11:07:09;;;;;;;3.53;3.43;;;24.60;1.00;;;;;;6178146;28;20321;-55
2022/06/04 11:10:16;;;;;;;3.80;3.50;;;24.70;1.00;;;;;;6179050;28;20239;-55
2022/06/04 11:13:24;;;;;;;4.17;3.80;;;24.90;1.00;;;;;;6188498;28;20282;-55
2022/06/04 11:16:34;;;;;;;5.77;3.40;;;24.80;1.00;;;;;;6194897;28;20243;-54
2022/06/04 11:19:50;;;;;;;5.43;3.70;;;24.90;1.00;;;;;;6178329;28;20781;-55
2022/06/04 11:23:03;;;;;;;3.10;3.00;;;25.00;1.00;;;;;;6178793;28;20899;-55
2022/06/04 11:26:14;;;;;;;3.43;3.33;;;25.10;1.00;;;;;;6191152;28;20375;-56
2022/06/04 11:29:18;;;;;;;3.30;3.03;;;25.50;1.00;;;;;;6177695;28;20403;-55
2022/06/04 11:32:29;;;;;;;3.50;3.30;;;25.70;1.00;;;;;;6189867;28;20244;-56
2022/06/04 11:35:42;;;;;;;3.23;3.03;;;25.90;1.00;;;;;;6183639;28;20590;-56
2022/06/04 11:39:00;;;;;;;3.23;3.10;;;25.90;1.00;;;;;;6184768;28;20306;-57
2022/06/04 11:42:11;;;;;;;3.47;3.27;;;26.00;1.00;;;;;;6179494;28;20239;-55
2022/06/04 11:45:30;;;;;;;3.20;3.10;;;26.00;1.00;;;;;;6193154;28;20670;-55
2022/06/04 11:48:53;;;;;;;6.20;3.00;;;26.10;1.00;;;;;;6177999;28;20650;-55
2022/06/04 11:52:07;;;;;;;3.13;3.03;;;26.00;1.00;;;;;;6192328;28;20323;-55
2022/06/04 11:55:29;;;;;;;2.80;2.60;;;26.10;1.00;;;;;;6191315;28;20244;-55
2022/06/04 11:58:51;;;;;;;2.60;2.60;;;26.10;1.00;;;;;;6161497;28;20244;-54
2022/06/04 12:01:59;;;;;;;2.80;2.80;;;26.10;1.00;;;;;;6191543;28;20240;-56
2022/06/04 12:05:10;;;;;;;2.77;2.67;;;26.00;1.00;;;;;;6188498;28;20514;-55
2022/06/04 12:08:18;;;;;;;3.63;3.43;;;25.90;1.00;;;;;;6186788;28;20717;-56
2022/06/04 12:11:35;;;;;;;2.90;2.80;;;25.90;1.00;;;;;;6182879;28;20243;-55
2022/06/04 12:14:45;;;;;;;3.20;3.00;;;25.80;1.00;;;;;;6182654;28;20323;-55
2022/06/04 12:17:52;;;;;;;4.33;3.37;;;25.90;1.00;;;;;;6186942;28;20593;-56
2022/06/04 12:24:31;;;;;;;2.90;2.83;;;26.10;1.00;;;;;;6176663;28;20282;-55
2022/06/04 12:27:34;;;;;;;4.07;3.30;;;26.20;1.00;;;;;;6191103;28;20243;-55
2022/06/04 12:30:43;;;;;;;3.60;3.10;;;26.20;1.00;;;;;;6183239;28;20376;-57
2022/06/04 12:33:52;;;;;;;3.53;3.37;;;26.10;1.00;;;;;;6184532;28;20240;-54
2022/06/04 12:36:56;;;;;;;4.33;3.30;;;26.10;1.00;;;;;;6181552;28;20737;-56
2022/06/04 12:40:18;;;;;;;3.00;2.77;;;26.10;1.00;;;;;;6184490;28;20352;-56
2022/06/04 12:43:31;;;;;;;2.97;2.97;;;26.00;1.00;;;;;;6186336;28;20239;-55
2022/06/04 12:46:35;;;;;;;3.60;3.40;;;26.00;1.00;;;;;;6192064;28;20307;-55
2022/06/04 12:49:47;;;;;;;3.57;3.27;;;25.90;1.00;;;;;;6185846;28;20232;-55
2022/06/04 12:53:00;;;;;;;3.43;3.13;;;26.00;1.00;;;;;;6187110;28;20476;-56
2022/06/04 12:56:08;;;;;;;3.73;2.97;;;26.10;1.00;;;;;;6188193;28;20230;-56
2022/06/04 12:59:27;;;;;;;3.37;3.07;;;26.10;1.00;;;;;;6173809;28;20331;-56
2022/06/04 13:02:33;;;;;;;3.63;3.47;;;26.00;1.00;;;;;;6178842;28;20525;-54
2022/06/04 13:05:38;;;;;;;3.10;3.00;;;25.80;1.00;;;;;;6191235;28;20247;-55
2022/06/04 13:08:47;;;;;;;3.20;3.10;;;25.70;1.00;;;;;;6184029;28;20371;-56
2022/06/04 13:12:12;;;;;;;2.90;2.90;;;25.60;1.00;;;;;;6191007;28;20315;-55
2022/06/04 13:15:23;;;;;;;3.47;3.17;;;25.70;1.00;;;;;;6175009;28;20338;-55
2022/06/04 13:18:31;;;;;;;3.33;3.23;;;26.00;1.00;;;;;;6172335;28;20400;-53
2022/06/04 13:21:37;;;;;;;3.43;3.23;;;26.00;1.00;;;;;;6187769;28;20378;-56
2022/06/04 13:24:40;;;;;;;3.10;3.10;;;26.00;1.00;;;;;;6178680;28;20363;-57
2022/06/04 13:27:49;;;;;;;4.07;3.87;;;26.10;1.00;;;;;;6182032;28;20246;-57
2022/06/04 13:30:53;;;;;;;2.83;2.70;;;26.00;1.00;;;;;;6179913;28;20403;-54
2022/06/04 13:33:58;;;;;;;3.07;2.97;;;26.20;1.00;;;;;;6178212;28;20319;-56
2022/06/04 13:37:04;;;;;;;2.97;2.87;;;26.30;1.00;;;;;;6181833;28;20762;-57
2022/06/04 13:40:18;;;;;;;3.17;3.07;;;26.40;1.00;;;;;;6163700;28;20673;-54
2022/06/04 13:43:22;;;;;;;3.43;3.20;;;26.40;1.00;;;;;;6159486;28;20861;-56
2022/06/04 13:46:26;;;;;;;2.80;2.80;;;26.50;1.00;;;;;;6161262;28;20244;-55
2022/06/04 13:49:29;;;;;;;3.13;2.87;;;26.30;1.00;;;;;;6156744;28;20243;-56
2022/06/04 13:52:42;;;;;;;3.40;3.10;;;26.20;1.00;;;;;;6154297;28;20349;-55
2022/06/04 13:55:51;;;;;;;3.57;3.27;;;26.20;1.00;;;;;;6130040;28;20414;-57
2022/06/04 13:58:56;;;;;;;3.93;3.50;;;26.30;1.00;;;;;;6151407;28;20907;-55
2022/06/04 14:02:03;;;;;;;3.50;3.20;;;26.40;1.00;;;;;;6153755;28;20863;-55
2022/06/04 14:08:33;;;;;;;3.30;3.20;;;26.50;1.00;;;;;;6149759;28;20248;-55
2022/06/04 14:11:45;;;;;;;3.30;3.20;;;26.40;1.00;;;;;;6155414;28;20239;-55
2022/06/04 14:15:03;;;;;;;3.63;3.40;;;26.20;1.00;;;;;;6153949;28;20321;-55
2022/06/04 14:18:22;;;;;;;3.53;3.43;;;26.00;1.00;;;;;;6156999;28;20248;-56
2022/06/04 14:21:43;;;;;;;3.47;3.37;;;26.00;1.00;;;;;;6147252;28;20355;-55
2022/06/04 14:25:04;;;;;;;3.43;3.33;;;26.30;1.00;;;;;;6150938;28;20744;-54
2022/06/04 14:28:18;;;;;;;2.80;2.80;;;26.60;1.00;;;;;;6147606;28;20772;-54
2022/06/04 14:31:37;;;;;;;3.30;3.10;;;26.60;1.00;;;;;;6177871;28;20237;-56
2022/06/04 14:34:45;;;;;;;3.20;3.10;;;26.60;1.00;;;;;;6188250;28;20243;-55
2022/06/04 14:37:50;;;;;;;3.63;3.20;;;26.50;1.00;;;;;;6171261;28;20243;-54
2022/06/04 14:41:01;;;;;;;3.50;3.40;;;26.30;1.00;;;;;;6180264;28;20314;-55
2022/06/04 14:44:42;;;;;;;3.80;3.50;;;26.30;1.00;;;;;;6178335;28;20476;-55
2022/06/04 14:48:19;;;;;;;3.67;3.47;;;26.10;1.00;;;;;;6175774;28;20232;-55
2022/06/04 14:51:45;;;;;;;3.10;3.00;;;26.00;1.00;;;;;;6168101;28;20319;-55
2022/06/04 14:54:51;;;;;;;3.23;3.03;;;26.20;1.00;;;;;;6190545;28;20240;-56
2022/06/04 14:58:33;;;;;;;3.40;3.30;;;26.40;1.00;;;;;;6197871;28;20821;-54
2022/06/04 15:01:56;;;;;;;3.23;3.03;;;26.30;1.00;;;;;;6195440;28;20526;-57
2022/06/04 15:05:23;;;;;;;3.10;3.10;;;26.40;1.00;;;;;;6192042;28;20243;-55
2022/06/04 15:09:20;;;;;;;3.33;2.73;;;26.50;1.00;;;;;;6182800;28;20542;-55
2022/06/04 15:12:40;;;;;;;3.37;3.10;;;26.40;1.00;;;;;;6177982;28;20505;-55
2022/06/04 15:16:08;;;;;;;3.27;3.17;;;26.30;1.00;;;;;;6182282;28;20259;-53
2022/06/04 15:19:31;;;;;;;3.47;3.20;;;26.30;1.00;;;;;;6183688;28;20731;-55
2022/06/04 15:22:59;;;;;;;3.30;3.10;;;26.30;1.00;;;;;;6179457;28;20305;-55
2022/06/04 15:26:08;;;;;;;3.77;3.47;;;26.30;1.00;;;;;;6188688;28;20323;-56
2022/06/04 15:36:23;;;;;;;3.60;3.40;;;26.40;1.00;;;;;;6189644;28;20379;-54
2022/06/04 15:39:32;;;;;;;3.13;3.00;;;26.50;1.00;;;;;;6177069;28;20725;-55
2022/06/04 15:42:49;;;;;;;4.07;3.67;;;26.40;1.00;;;;;;6185371;28;20229;-55
2022/06/04 15:46:01;;;;;;;3.10;2.90;;;26.40;1.00;;;;;;6191846;28;20834;-57
2022/06/04 15:49:13;;;;;;;3.97;3.63;;;26.40;1.00;;;;;;6183889;28;20244;-54
2022/06/04 15:56:03;;;;;;;3.83;3.60;;;26.30;1.00;;;;;;6197023;28;20239;-57
2022/06/04 15:59:13;;;;;;;3.30;3.20;;;26.20;1.00;;;;;;6184032;28;20323;-55
2022/06/04 16:02:25;;;;;;;3.17;3.07;;;26.20;1.00;;;;;;6177573;28;20379;-57
2022/06/04 16:05:30;;;;;;;3.60;3.60;;;26.00;1.00;;;;;;6179817;28;20238;-55
2022/06/04 16:08:38;;;;;;;3.73;3.63;;;25.90;1.00;;;;;;6183126;28;20424;-57
2022/06/04 16:11:55;;;;;;;3.50;3.20;;;26.00;1.00;;;;;;6190411;28;20331;-55
2022/06/04 16:15:11;;;;;;;3.00;3.00;;;26.00;1.00;;;;;;6194663;28;20275;-58
2022/06/04 16:18:24;;;;;;;3.70;3.30;;;25.90;1.00;;;;;;6179832;28;20319;-55
2022/06/04 16:21:37;;;;;;;3.80;3.70;;;25.80;1.00;;;;;;6159212;28;20279;-57
2022/06/04 16:24:54;;;;;;;3.87;3.67;;;25.70;1.00;;;;;;6191915;28;20243;-55
2022/06/04 16:28:08;;;;;;;3.37;3.33;;;25.60;1.00;;;;;;6187089;28;20240;-55
2022/06/04 16:31:25;;;;;;;3.60;3.30;;;25.50;1.00;;;;;;6172492;28;20232;-56
2022/06/04 16:34:54;;;;;;;31.03;28.53;;;25.50;1.00;;;;;;6178905;28;20259;-55
2022/06/04 16:38:13;;;;;;;6.63;6.33;;;25.40;1.00;;;;;;6177922;28;20223;-56
2022/06/04 16:44:49;;;;;;;4.23;3.80;;;25.30;1.00;;;;;;6187755;28;20319;-55
2022/06/04 16:47:54;;;;;;;7.50;6.90;;;25.20;1.00;;;;;;6183047;28;20236;-57
2022/06/04 16:50:59;;;;;;;3.97;3.67;;;25.20;1.00;;;;;;6195298;28;20322;-56
2022/06/04 16:54:03;;;;;;;4.10;3.77;;;25.10;1.00;;;;;;6178771;28;20316;-55
2022/06/04 16:57:07;;;;;;;3.33;3.30;;;25.10;1.00;;;;;;6185939;28;20244;-58
2022/06/04 17:00:15;;;;;;;3.43;3.40;;;24.80;1.00;;;;;;6186456;28;20306;-56
2022/06/04 17:03:28;;;;;;;4.00;3.70;;;24.70;1.00;;;;;;6201367;28;20289;-56
2022/06/04 17:06:45;;;;;;;3.60;3.53;;;24.40;1.00;;;;;;6186217;28;20263;-56
2022/06/04 17:10:07;;;;;;;3.73;3.47;;;24.40;1.00;;;;;;6179967;28;20267;-56
2022/06/04 17:13:15;;;;;;;3.80;3.40;;;24.30;1.00;;;;;;6171788;28;20240;-56
2022/06/04 17:16:27;;;;;;;3.80;3.47;;;24.20;1.00;;;;;;6201615;28;20242;-57
2022/06/04 17:19:41;;;;;;;3.73;3.43;;;24.10;1.00;;;;;;6184547;28;20255;-55